createdAt,value
2023-06-04T00:01:57.722Z,101457.34
2023-06-04T00:04:24.449Z,101462.56
2023-06-04T00:06:50.939Z,101460.06
2023-06-04T00:09:17.307Z,101459.56
2023-06-04T00:11:43.881Z,101452.41
2023-06-04T00:14:10.285Z,101455.69
2023-06-04T00:16:36.969Z,101444.16
2023-06-04T00:19:03.936Z,101443.34
2023-06-04T00:21:30.523Z,101451.59
2023-06-04T00:23:56.892Z,101449.38
2023-06-04T00:26:23.390Z,101448.81
2023-06-04T00:28:49.819Z,101449.63
2023-06-04T00:31:16.901Z,101455.97
2023-06-04T00:33:43.396Z,101454.03
2023-06-04T00:36:09.974Z,101455.34
2023-06-04T00:38:36.331Z,101455.03
2023-06-04T00:41:02.765Z,101454.19
2023-06-04T00:43:32.302Z,101459.09
2023-06-04T00:45:59.112Z,101461.28
2023-06-04T00:48:28.426Z,101462.91
2023-06-04T00:50:55.874Z,101459.59
2023-06-04T00:53:24.575Z,101459.88
2023-06-04T00:55:51.433Z,101456.03
2023-06-04T00:58:18.446Z,101460.41
2023-06-04T01:00:46.357Z,101460.38
2023-06-04T01:03:19.701Z,101459.25
2023-06-04T01:05:55.744Z,101454.84
2023-06-04T01:08:23.403Z,101456.47
2023-06-04T01:10:53.583Z,101457.31
2023-06-04T01:13:20.000Z,101465.53
2023-06-04T01:15:46.796Z,101467.63
2023-06-04T01:18:28.441Z,101459.72
2023-06-04T01:21:01.978Z,101465.09
2023-06-04T01:23:37.354Z,101467.81
2023-06-04T01:26:05.791Z,101460.25
2023-06-04T01:28:35.710Z,101462.19
2023-06-04T01:31:03.689Z,101462.38
2023-06-04T01:33:30.342Z,101464.53
2023-06-04T01:35:57.011Z,101463.13
2023-06-04T01:38:23.338Z,101467.50
2023-06-04T01:40:49.853Z,101473.91
2023-06-04T01:43:16.733Z,101471.09
2023-06-04T01:45:43.107Z,101463.38
2023-06-04T01:48:09.643Z,101457.34
2023-06-04T01:50:36.161Z,101461.94
2023-06-04T01:53:02.834Z,101462.09
2023-06-04T01:55:34.110Z,101460.38
2023-06-04T01:58:02.158Z,101464.16
2023-06-04T02:00:28.653Z,101469.78
2023-06-04T02:02:57.113Z,101467.25
2023-06-04T02:05:23.913Z,101464.50
2023-06-04T02:07:50.323Z,101471.56
2023-06-04T02:10:18.426Z,101468.16
2023-06-04T02:12:57.157Z,101477.47
2023-06-04T02:15:24.428Z,101481.13
2023-06-04T02:17:51.470Z,101474.00
2023-06-04T02:20:18.519Z,101480.31
2023-06-04T02:22:44.968Z,101484.19
2023-06-04T02:25:11.457Z,101475.72
2023-06-04T02:27:37.932Z,101482.59
2023-06-04T02:30:06.454Z,101472.25
2023-06-04T02:32:34.634Z,101484.53
2023-06-04T02:35:01.154Z,101482.06
2023-06-04T02:37:27.487Z,101475.78
2023-06-04T02:39:53.857Z,101477.94
2023-06-04T02:42:20.272Z,101475.44
2023-06-04T02:44:46.643Z,101481.72
2023-06-04T02:47:12.971Z,101479.66
2023-06-04T02:49:39.367Z,101488.19
2023-06-04T02:52:06.360Z,101491.53
2023-06-04T02:54:32.681Z,101490.53
2023-06-04T02:56:59.160Z,101494.69
2023-06-04T02:59:26.269Z,101491.38
2023-06-04T03:01:52.692Z,101491.53
2023-06-04T03:04:19.330Z,101491.69
2023-06-04T03:06:45.775Z,101483.53
2023-06-04T03:09:12.656Z,101481.78
2023-06-04T03:11:39.244Z,101487.72
2023-06-04T03:14:06.238Z,101487.50
2023-06-04T03:16:32.617Z,101491.97
2023-06-04T03:18:58.980Z,101482.69
2023-06-04T03:21:26.035Z,101497.09
2023-06-04T03:23:52.503Z,101497.81
2023-06-04T03:26:18.982Z,101494.00
2023-06-04T03:28:45.403Z,101481.06
2023-06-04T03:31:11.775Z,101494.94
2023-06-04T03:33:38.220Z,101493.59
2023-06-04T03:36:04.931Z,101490.28
2023-06-04T03:38:31.492Z,101485.50
2023-06-04T03:40:57.928Z,101490.75
2023-06-04T03:43:24.290Z,101484.25
2023-06-04T03:45:50.736Z,101483.94
2023-06-04T03:48:17.157Z,101486.88
2023-06-04T03:50:43.577Z,101494.00
2023-06-04T03:53:10.168Z,101484.22
2023-06-04T03:55:38.080Z,101490.88
2023-06-04T03:58:04.465Z,101489.22
2023-06-04T04:00:30.881Z,101484.41
2023-06-04T04:02:57.624Z,101476.53
2023-06-04T04:05:24.108Z,101478.78
2023-06-04T04:07:50.580Z,101477.25
2023-06-04T04:10:17.020Z,101486.00
2023-06-04T04:12:43.518Z,101479.13
2023-06-04T04:15:10.340Z,101478.97
2023-06-04T04:17:36.956Z,101482.78
2023-06-04T04:20:06.296Z,101474.34
2023-06-04T04:22:34.005Z,101480.53
2023-06-04T04:25:00.484Z,101478.03
2023-06-04T04:27:27.087Z,101487.16
2023-06-04T04:29:56.128Z,101477.66
2023-06-04T04:32:23.701Z,101487.91
2023-06-04T04:34:55.578Z,101479.38
2023-06-04T04:37:22.822Z,101474.09
2023-06-04T04:39:52.799Z,101472.97
2023-06-04T04:42:20.267Z,101478.59
2023-06-04T04:44:48.886Z,101481.53
2023-06-04T04:47:16.423Z,101477.72
2023-06-04T04:49:43.390Z,101482.53
2023-06-04T04:52:09.842Z,101484.25
2023-06-04T04:54:36.305Z,101488.47
2023-06-04T04:57:13.516Z,101489.16
2023-06-04T04:59:41.054Z,101484.59
2023-06-04T05:02:07.705Z,101488.13
2023-06-04T05:04:34.333Z,101486.56
2023-06-04T05:07:00.847Z,101485.56
2023-06-04T05:09:27.188Z,101485.38
2023-06-04T05:11:53.592Z,101496.94
2023-06-04T05:14:19.959Z,101489.03
2023-06-04T05:16:46.509Z,101493.25
2023-06-04T05:19:13.154Z,101496.38
2023-06-04T05:21:40.413Z,101494.84
2023-06-04T05:24:06.975Z,101500.97
2023-06-04T05:26:34.089Z,101497.16
2023-06-04T05:29:00.912Z,101502.25
2023-06-04T05:31:30.501Z,101499.03
2023-06-04T05:33:56.924Z,101496.97
2023-06-04T05:36:23.456Z,101493.31
2023-06-04T05:38:58.030Z,101499.97
2023-06-04T05:41:25.189Z,101506.63
2023-06-04T05:43:51.531Z,101499.00
2023-06-04T05:46:18.031Z,101508.44
2023-06-04T05:48:44.489Z,101503.03
2023-06-04T05:51:10.827Z,101509.38
2023-06-04T05:53:37.447Z,101514.56
2023-06-04T05:56:03.972Z,101514.09
2023-06-04T05:58:30.754Z,101519.41
2023-06-04T06:00:57.087Z,101519.50
2023-06-04T06:03:23.864Z,101517.69
2023-06-04T06:05:50.589Z,101519.38
2023-06-04T06:08:17.229Z,101513.41
2023-06-04T06:10:43.952Z,101522.47
2023-06-04T06:13:10.452Z,101531.06
2023-06-04T06:15:36.983Z,101519.88
2023-06-04T06:18:03.497Z,101530.38
2023-06-04T06:20:30.187Z,101528.50
2023-06-04T06:22:56.625Z,101529.03
2023-06-04T06:25:23.099Z,101530.44
2023-06-04T06:27:49.451Z,101529.66
2023-06-04T06:30:16.167Z,101534.09
2023-06-04T06:32:42.885Z,101539.63
2023-06-04T06:35:09.654Z,101536.91
2023-06-04T06:37:36.063Z,101536.91
2023-06-04T06:40:02.505Z,101540.53
2023-06-04T06:42:34.912Z,101538.06
2023-06-04T06:45:01.256Z,101543.56
2023-06-04T06:47:27.620Z,101548.25
2023-06-04T06:49:54.119Z,101549.63
2023-06-04T06:52:20.868Z,101557.31
2023-06-04T06:54:47.441Z,101552.88
2023-06-04T06:57:14.299Z,101549.09
2023-06-04T06:59:40.748Z,101549.88
2023-06-04T07:02:07.477Z,101550.16
2023-06-04T07:04:33.824Z,101555.63
2023-06-04T07:07:00.526Z,101550.09
2023-06-04T07:09:27.028Z,101549.00
2023-06-04T07:11:53.381Z,101549.50
2023-06-04T07:14:20.090Z,101547.84
2023-06-04T07:16:46.582Z,101547.53
2023-06-04T07:19:12.978Z,101544.75
2023-06-04T07:21:39.533Z,101547.16
2023-06-04T07:24:06.033Z,101547.03
2023-06-04T07:26:35.099Z,101539.78
2023-06-04T07:29:01.938Z,101540.75
2023-06-04T07:31:28.288Z,101539.31
2023-06-04T07:33:54.652Z,101538.97
2023-06-04T07:36:23.976Z,101543.81
2023-06-04T07:38:50.339Z,101540.97
2023-06-04T07:41:17.079Z,101539.69
2023-06-04T07:43:44.332Z,101542.28
2023-06-04T07:46:11.873Z,101527.59
2023-06-04T07:48:38.237Z,101532.72
2023-06-04T07:51:05.675Z,101532.78
2023-06-04T07:53:32.234Z,101542.00
2023-06-04T07:55:58.639Z,101532.00
2023-06-04T07:58:25.145Z,101542.34
2023-06-04T08:00:51.543Z,101530.84
2023-06-04T08:03:18.052Z,101533.97
2023-06-04T08:05:44.580Z,101535.47
2023-06-04T08:08:10.982Z,101530.81
2023-06-04T08:10:37.657Z,101531.44
2023-06-04T08:13:04.131Z,101529.72
2023-06-04T08:15:30.738Z,101528.69
2023-06-04T08:17:57.721Z,101526.22
2023-06-04T08:20:27.222Z,101536.09
2023-06-04T08:22:53.890Z,101527.59
2023-06-04T08:25:20.388Z,101535.19
2023-06-04T08:27:46.722Z,101524.03
2023-06-04T08:30:13.222Z,101533.78
2023-06-04T08:32:41.290Z,101527.38
2023-06-04T08:35:09.254Z,101526.41
2023-06-04T08:37:36.699Z,101529.66
2023-06-04T08:40:05.898Z,101524.72
2023-06-04T08:42:39.355Z,101527.63
2023-06-04T08:45:07.908Z,101519.72
2023-06-04T08:47:35.943Z,101519.00
2023-06-04T08:50:02.987Z,101516.53
2023-06-04T08:52:29.834Z,101522.53
2023-06-04T08:54:56.619Z,101525.69
2023-06-04T08:57:23.016Z,101526.13
2023-06-04T08:59:51.085Z,101519.34
2023-06-04T09:02:18.478Z,101518.72
2023-06-04T09:04:45.709Z,101529.09
2023-06-04T09:07:14.214Z,101534.88
2023-06-04T09:09:43.849Z,101527.16
2023-06-04T09:12:12.723Z,101532.69
2023-06-04T09:14:39.096Z,101535.84
2023-06-04T09:17:06.326Z,101528.09
2023-06-04T09:19:32.835Z,101527.44
2023-06-04T09:22:01.660Z,101525.09
2023-06-04T09:24:42.326Z,101523.13
2023-06-04T09:27:13.162Z,101526.28
2023-06-04T09:29:40.904Z,101531.66
2023-06-04T09:32:07.362Z,101521.22
2023-06-04T09:34:34.032Z,101517.06
2023-06-04T09:37:00.399Z,101526.78
2023-06-04T09:39:27.980Z,101533.78
2023-06-04T09:41:59.284Z,101530.91
2023-06-04T09:44:25.727Z,101530.28
2023-06-04T09:46:59.397Z,101525.00
2023-06-04T09:49:25.914Z,101531.75
2023-06-04T09:51:52.365Z,101514.78
2023-06-04T09:54:18.844Z,101526.50
2023-06-04T09:56:45.267Z,101529.03
2023-06-04T09:59:13.808Z,101522.78
2023-06-04T10:01:42.483Z,101524.47
2023-06-04T10:04:10.356Z,101516.53
2023-06-04T10:06:37.462Z,101524.38
2023-06-04T10:09:08.750Z,101526.78
2023-06-04T10:11:38.690Z,101521.09
2023-06-04T10:14:12.765Z,101520.28
2023-06-04T10:16:41.030Z,101521.25
2023-06-04T10:19:08.561Z,101516.91
2023-06-04T10:21:38.534Z,101522.19
2023-06-04T10:24:05.575Z,101512.78
2023-06-04T10:26:34.953Z,101514.41
2023-06-04T10:29:02.031Z,101507.13
2023-06-04T10:31:28.555Z,101509.00
2023-06-04T10:33:56.274Z,101497.06
2023-06-04T10:36:24.999Z,101506.75
2023-06-04T10:38:55.863Z,101501.31
2023-06-04T10:41:24.786Z,101501.00
2023-06-04T10:43:52.818Z,101503.78
2023-06-04T10:46:21.229Z,101503.13
2023-06-04T10:48:51.941Z,101509.16
2023-06-04T10:51:34.040Z,101508.97
2023-06-04T10:54:02.098Z,101495.94
2023-06-04T10:56:39.223Z,101497.69
2023-06-04T10:59:16.180Z,101487.25
2023-06-04T11:01:42.712Z,101488.06
2023-06-04T11:04:22.834Z,101482.06
2023-06-04T11:07:03.004Z,101484.97
2023-06-04T11:09:29.362Z,101498.03
2023-06-04T11:12:02.443Z,101498.06
2023-06-04T11:14:28.950Z,101499.22
2023-06-04T11:16:55.420Z,101505.03
2023-06-04T11:19:21.864Z,101484.75
2023-06-04T11:21:49.287Z,101485.91
2023-06-04T11:24:17.363Z,101491.81
2023-06-04T11:26:50.551Z,101482.63
2023-06-04T11:29:23.417Z,101477.56
2023-06-04T11:31:49.920Z,101475.13
2023-06-04T11:34:30.615Z,101468.56
2023-06-04T11:36:56.978Z,101477.75
2023-06-04T11:39:23.911Z,101478.28
2023-06-04T11:41:52.296Z,101471.91
2023-06-04T11:44:21.931Z,101469.44
2023-06-04T11:46:49.708Z,101473.22
2023-06-04T11:49:17.279Z,101470.44
2023-06-04T11:51:52.992Z,101476.13
2023-06-04T11:54:23.162Z,101474.50
2023-06-04T11:56:51.890Z,101469.44
2023-06-04T11:59:19.285Z,101476.13
2023-06-04T12:01:47.375Z,101462.41
2023-06-04T12:04:18.281Z,101465.28
2023-06-04T12:07:05.635Z,101471.22
2023-06-04T12:09:35.953Z,101471.53
2023-06-04T12:12:04.712Z,101466.19
2023-06-04T12:14:31.760Z,101472.88
2023-06-04T12:16:59.954Z,101463.09
2023-06-04T12:19:27.480Z,101468.47
2023-06-04T12:22:04.627Z,101468.66
2023-06-04T12:24:33.135Z,101471.09
2023-06-04T12:27:07.773Z,101460.75
2023-06-04T12:29:34.382Z,101458.34
2023-06-04T12:32:06.055Z,101454.91
2023-06-04T12:34:33.023Z,101453.09
2023-06-04T12:36:59.692Z,101453.75
2023-06-04T12:39:26.171Z,101455.56
2023-06-04T12:41:52.570Z,101443.94
2023-06-04T12:44:19.059Z,101450.00
2023-06-04T12:46:45.929Z,101450.66
2023-06-04T12:49:13.145Z,101441.34
2023-06-04T12:51:39.900Z,101445.72
2023-06-04T12:54:06.289Z,101437.28
2023-06-04T12:56:32.866Z,101431.53
2023-06-04T12:59:00.125Z,101425.47
2023-06-04T13:01:28.370Z,101425.63
2023-06-04T13:03:56.649Z,101436.25
2023-06-04T13:06:23.389Z,101429.03
2023-06-04T13:08:49.770Z,101425.19
2023-06-04T13:11:16.580Z,101428.94
2023-06-04T13:13:43.124Z,101426.16
2023-06-04T13:16:09.683Z,101424.72
2023-06-04T13:18:36.620Z,101425.31
2023-06-04T13:21:03.297Z,101432.66
2023-06-04T13:23:45.437Z,101438.56
2023-06-04T13:26:16.099Z,101433.53
2023-06-04T13:28:42.515Z,101438.59
2023-06-04T13:31:09.211Z,101423.56
2023-06-04T13:33:36.210Z,101418.13
2023-06-04T13:36:06.260Z,101420.72
2023-06-04T13:38:33.114Z,101424.38
2023-06-04T13:40:59.643Z,101418.28
2023-06-04T13:43:26.392Z,101421.75
2023-06-04T13:45:53.170Z,101420.25
2023-06-04T13:48:19.762Z,101421.91
2023-06-04T13:50:46.538Z,101423.38
2023-06-04T13:53:15.791Z,101423.03
2023-06-04T13:55:42.159Z,101417.16
2023-06-04T13:58:08.703Z,101419.09
2023-06-04T14:00:35.491Z,101413.47
2023-06-04T14:03:01.975Z,101401.84
2023-06-04T14:05:28.984Z,101407.59
2023-06-04T14:07:55.759Z,101403.00
2023-06-04T14:10:22.122Z,101400.84
2023-06-04T14:12:48.562Z,101391.75
2023-06-04T14:15:14.963Z,101394.59
2023-06-04T14:17:41.645Z,101397.72
2023-06-04T14:20:09.677Z,101396.75
2023-06-04T14:22:39.961Z,101390.97
2023-06-04T14:25:08.001Z,101380.44
2023-06-04T14:27:35.717Z,101383.88
2023-06-04T14:30:03.751Z,101387.44
2023-06-04T14:32:30.227Z,101385.41
2023-06-04T14:34:57.274Z,101384.19
2023-06-04T14:37:23.673Z,101378.13
2023-06-04T14:39:50.377Z,101381.97
2023-06-04T14:42:17.048Z,101379.97
2023-06-04T14:44:43.513Z,101381.16
2023-06-04T14:47:09.848Z,101372.28
2023-06-04T14:49:37.344Z,101377.50
2023-06-04T14:52:03.887Z,101371.41
2023-06-04T14:54:31.021Z,101386.78
2023-06-04T14:56:57.501Z,101371.97
2023-06-04T14:59:23.933Z,101374.44
2023-06-04T15:01:50.415Z,101360.84
2023-06-04T15:04:16.773Z,101374.31
2023-06-04T15:06:43.110Z,101368.13
2023-06-04T15:09:09.616Z,101371.91
2023-06-04T15:11:35.975Z,101360.47
2023-06-04T15:14:02.711Z,101354.19
2023-06-04T15:16:29.124Z,101355.69
2023-06-04T15:18:57.416Z,101353.22
2023-06-04T15:21:24.061Z,101350.91
2023-06-04T15:23:50.722Z,101353.75
2023-06-04T15:26:17.468Z,101347.09
2023-06-04T15:28:44.292Z,101345.75
2023-06-04T15:31:10.987Z,101340.84
2023-06-04T15:33:37.376Z,101346.50
2023-06-04T15:36:04.259Z,101343.50
2023-06-04T15:38:31.943Z,101351.19
2023-06-04T15:40:58.651Z,101354.47
2023-06-04T15:43:25.270Z,101355.56
2023-06-04T15:45:51.828Z,101349.84
2023-06-04T15:48:18.319Z,101350.00
2023-06-04T15:50:44.732Z,101352.47
2023-06-04T15:53:11.200Z,101351.94
2023-06-04T15:55:37.646Z,101350.34
2023-06-04T15:58:04.121Z,101349.91
2023-06-04T16:00:30.553Z,101345.00
2023-06-04T16:02:57.096Z,101342.00
2023-06-04T16:05:23.524Z,101349.69
2023-06-04T16:07:49.921Z,101353.84
2023-06-04T16:10:16.261Z,101344.91
2023-06-04T16:12:42.646Z,101345.22
2023-06-04T16:15:09.386Z,101343.41
2023-06-04T16:17:35.826Z,101334.09
2023-06-04T16:20:03.701Z,101332.13
2023-06-04T16:22:30.210Z,101339.75
2023-06-04T16:24:56.980Z,101334.00
2023-06-04T16:27:23.329Z,101340.44
2023-06-04T16:29:49.686Z,101335.13
2023-06-04T16:32:16.121Z,101333.22
2023-06-04T16:34:42.474Z,101335.50
2023-06-04T16:37:08.863Z,101326.00
2023-06-04T16:39:35.364Z,101332.75
2023-06-04T16:42:03.900Z,101338.66
2023-06-04T16:44:30.289Z,101324.28
2023-06-04T16:46:57.040Z,101328.19
2023-06-04T16:49:23.432Z,101333.25
2023-06-04T16:51:49.880Z,101339.63
2023-06-04T16:54:16.530Z,101327.56
2023-06-04T16:56:43.431Z,101329.16
2023-06-04T16:59:09.914Z,101336.78
2023-06-04T17:01:37.969Z,101338.09
2023-06-04T17:04:05.262Z,101324.44
2023-06-04T17:06:32.346Z,101331.19
2023-06-04T17:08:58.710Z,101339.53
2023-06-04T17:11:25.715Z,101343.13
2023-06-04T17:13:52.152Z,101341.66
2023-06-04T17:16:18.704Z,101339.91
2023-06-04T17:18:45.168Z,101342.84
2023-06-04T17:21:12.298Z,101344.28
2023-06-04T17:23:40.843Z,101341.34
2023-06-04T17:26:08.002Z,101350.34
2023-06-04T17:28:34.646Z,101349.38
2023-06-04T17:31:01.590Z,101339.72
2023-06-04T17:33:28.200Z,101350.97
2023-06-04T17:35:54.708Z,101344.78
2023-06-04T17:38:21.079Z,101344.59
2023-06-04T17:40:47.522Z,101354.56
2023-06-04T17:43:14.032Z,101346.88
2023-06-04T17:45:40.773Z,101353.56
2023-06-04T17:48:07.668Z,101341.81
2023-06-04T17:50:34.098Z,101348.03
2023-06-04T17:53:00.803Z,101351.00
2023-06-04T17:55:27.228Z,101345.41
2023-06-04T17:57:56.412Z,101351.09
2023-06-04T18:00:23.067Z,101353.56
2023-06-04T18:02:49.600Z,101361.53
2023-06-04T18:05:16.070Z,101355.00
2023-06-04T18:07:42.548Z,101362.97
2023-06-04T18:10:09.376Z,101359.06
2023-06-04T18:12:36.683Z,101359.84
2023-06-04T18:15:04.353Z,101355.88
2023-06-04T18:17:31.040Z,101357.66
2023-06-04T18:19:57.397Z,101362.72
2023-06-04T18:22:23.780Z,101360.56
2023-06-04T18:24:53.316Z,101358.47
2023-06-04T18:27:20.870Z,101352.63
2023-06-04T18:29:49.996Z,101356.31
2023-06-04T18:32:17.408Z,101357.78
2023-06-04T18:34:43.873Z,101356.44
2023-06-04T18:37:10.922Z,101356.59
2023-06-04T18:39:37.393Z,101362.38
2023-06-04T18:42:05.643Z,101359.50
2023-06-04T18:44:38.705Z,101359.97
2023-06-04T18:47:05.655Z,101361.38
2023-06-04T18:49:32.660Z,101351.75
2023-06-04T18:51:59.751Z,101365.91
2023-06-04T18:54:26.133Z,101358.56
2023-06-04T18:56:52.480Z,101365.31
2023-06-04T18:59:19.036Z,101359.94
2023-06-04T19:01:45.857Z,101362.72
2023-06-04T19:04:15.044Z,101364.88
2023-06-04T19:06:42.264Z,101367.03
2023-06-04T19:09:09.162Z,101368.09
2023-06-04T19:11:37.024Z,101361.66
2023-06-04T19:14:03.483Z,101365.00
2023-06-04T19:16:29.956Z,101365.81
2023-06-04T19:18:59.512Z,101378.31
2023-06-04T19:21:26.017Z,101377.00
2023-06-04T19:23:52.404Z,101378.16
2023-06-04T19:26:19.089Z,101383.00
2023-06-04T19:28:45.755Z,101379.22
2023-06-04T19:31:12.102Z,101386.59
2023-06-04T19:33:38.672Z,101385.78
2023-06-04T19:36:06.015Z,101390.91
2023-06-04T19:38:32.598Z,101395.44
2023-06-04T19:40:59.060Z,101399.94
2023-06-04T19:43:25.472Z,101398.91
2023-06-04T19:45:53.135Z,101398.41
2023-06-04T19:48:19.683Z,101405.56
2023-06-04T19:50:46.007Z,101409.78
2023-06-04T19:53:12.348Z,101411.59
2023-06-04T19:55:38.802Z,101414.66
2023-06-04T19:58:05.145Z,101412.03
2023-06-04T20:00:31.827Z,101413.56
2023-06-04T20:02:58.461Z,101410.19
2023-06-04T20:05:24.922Z,101413.34
2023-06-04T20:07:51.811Z,101418.16
2023-06-04T20:10:19.472Z,101420.50
2023-06-04T20:12:45.966Z,101422.13
2023-06-04T20:15:12.359Z,101424.06
2023-06-04T20:17:39.194Z,101425.03
2023-06-04T20:20:07.233Z,101428.31
2023-06-04T20:22:34.087Z,101431.56
2023-06-04T20:25:00.849Z,101436.47
2023-06-04T20:27:27.541Z,101432.69
2023-06-04T20:29:53.931Z,101434.25
2023-06-04T20:32:21.107Z,101442.16
2023-06-04T20:34:47.536Z,101439.09
2023-06-04T20:37:13.987Z,101438.88
2023-06-04T20:39:41.951Z,101448.06
2023-06-04T20:42:08.426Z,101444.22
2023-06-04T20:44:34.900Z,101450.47
2023-06-04T20:47:01.369Z,101448.00
2023-06-04T20:49:27.855Z,101449.06
2023-06-04T20:51:54.215Z,101457.84
2023-06-04T20:54:20.651Z,101454.13
2023-06-04T20:56:47.125Z,101462.72
2023-06-04T20:59:14.573Z,101460.03
2023-06-04T21:01:40.985Z,101460.56
2023-06-04T21:04:09.104Z,101467.28
2023-06-04T21:06:35.571Z,101472.63
2023-06-04T21:09:02.008Z,101470.84
2023-06-04T21:11:28.691Z,101472.03
2023-06-04T21:13:57.411Z,101477.13
2023-06-04T21:16:23.932Z,101473.09
2023-06-04T21:18:53.549Z,101473.31
2023-06-04T21:21:20.615Z,101476.91
2023-06-04T21:23:47.121Z,101476.06
2023-06-04T21:26:13.500Z,101473.25
2023-06-04T21:28:39.844Z,101482.19
2023-06-04T21:31:06.497Z,101479.84
2023-06-04T21:33:33.080Z,101478.44
2023-06-04T21:35:59.422Z,101483.69
2023-06-04T21:38:27.409Z,101474.09
2023-06-04T21:40:53.957Z,101476.31
2023-06-04T21:43:21.620Z,101473.03
2023-06-04T21:45:48.455Z,101466.47
2023-06-04T21:48:15.042Z,101475.25
2023-06-04T21:50:41.468Z,101478.91
2023-06-04T21:53:07.882Z,101478.69
2023-06-04T21:55:36.530Z,101479.53
2023-06-04T21:58:04.401Z,101472.03
2023-06-04T22:00:30.867Z,101485.63
2023-06-04T22:02:57.302Z,101480.84
2023-06-04T22:05:24.160Z,101468.25
2023-06-04T22:07:50.661Z,101473.59
2023-06-04T22:10:17.101Z,101481.63
2023-06-04T22:12:43.552Z,101485.47
2023-06-04T22:15:10.288Z,101470.84
2023-06-04T22:17:36.764Z,101481.94
2023-06-04T22:20:03.594Z,101488.34
2023-06-04T22:22:30.002Z,101490.28
2023-06-04T22:24:56.537Z,101480.97
2023-06-04T22:27:22.909Z,101492.22
2023-06-04T22:29:49.348Z,101483.13
2023-06-04T22:32:15.813Z,101487.25
2023-06-04T22:34:42.211Z,101487.53
2023-06-04T22:37:08.671Z,101487.53
2023-06-04T22:39:35.022Z,101478.88
2023-06-04T22:42:01.374Z,101484.19
2023-06-04T22:44:27.790Z,101483.97
2023-06-04T22:46:54.426Z,101476.31
2023-06-04T22:49:20.886Z,101485.16
2023-06-04T22:51:47.407Z,101478.88
2023-06-04T22:54:13.878Z,101484.69
2023-06-04T22:56:40.336Z,101481.09
2023-06-04T22:59:06.869Z,101488.31
2023-06-04T23:01:33.260Z,101483.06
2023-06-04T23:03:59.702Z,101482.44
2023-06-04T23:06:26.202Z,101483.53
2023-06-04T23:08:52.555Z,101481.31
2023-06-04T23:11:18.965Z,101482.66
2023-06-04T23:13:46.284Z,101489.53
2023-06-04T23:16:12.650Z,101484.06
2023-06-04T23:18:39.075Z,101486.53
2023-06-04T23:21:05.650Z,101479.94
2023-06-04T23:23:32.142Z,101480.84
2023-06-04T23:25:58.530Z,101478.72
2023-06-04T23:28:25.064Z,101486.97
2023-06-04T23:30:51.434Z,101484.53
2023-06-04T23:33:18.056Z,101490.84
2023-06-04T23:35:44.579Z,101490.09
2023-06-04T23:38:11.354Z,101494.53
2023-06-04T23:40:37.772Z,101495.41
2023-06-04T23:43:04.234Z,101496.78
2023-06-04T23:45:30.788Z,101497.97
2023-06-04T23:47:57.287Z,101496.06
2023-06-04T23:50:23.808Z,101498.28
2023-06-04T23:52:50.162Z,101496.66
2023-06-04T23:55:16.531Z,101494.78
2023-06-04T23:57:43.017Z,101499.47
